TPC2022 M95-KBHM
Flight info
| Callsign | TPC2022 |
|---|---|
| Flight time | N/A |
| Altitude | 7000 |
| Route | BESOM V278 VUZ |
| Aircraft | C172/L-SD/S |
Departure
| Time | N/A |
|---|---|
| Airport | M95 |
Arrival
| Time | 2026-05-07 05:21 |
|---|---|
| Airport | Birmingham-Shuttlesworth International Airport (KBHM) |
| Time | Latitude | Longitude | Altitude | Speed | Heading |
|---|---|---|---|---|---|
| 2026-05-07 04:13 | 33.71542 | -87.81602 | 357 ft | 0 kts | 360° |
| 2026-05-07 04:21 | 33.71543 | -87.81602 | 357 ft | 1 kts | 0° |
| 2026-05-07 04:21 | 33.71551 | -87.81587 | 357 ft | 1 kts | 107° |
| 2026-05-07 04:21 | 33.71540 | -87.81580 | 357 ft | 0 kts | 191° |
| 2026-05-07 04:21 | 33.71539 | -87.81581 | 357 ft | 0 kts | 194° |
| 2026-05-07 04:23 | 33.71520 | -87.81589 | 357 ft | 7 kts | 195° |
| 2026-05-07 04:24 | 33.71457 | -87.81590 | 356 ft | 9 kts | 153° |
| 2026-05-07 04:24 | 33.71428 | -87.81531 | 354 ft | 3 kts | 122° |
| 2026-05-07 04:24 | 33.71426 | -87.81506 | 354 ft | 5 kts | 91° |
| 2026-05-07 04:24 | 33.71389 | -87.81490 | 353 ft | 10 kts | 184° |
| 2026-05-07 04:25 | 33.71278 | -87.81503 | 352 ft | 20 kts | 183° |
| 2026-05-07 04:25 | 33.71127 | -87.81510 | 351 ft | 22 kts | 182° |
| 2026-05-07 04:25 | 33.70966 | -87.81519 | 348 ft | 23 kts | 181° |
| 2026-05-07 04:25 | 33.70802 | -87.81527 | 345 ft | 23 kts | 182° |
| 2026-05-07 04:26 | 33.70636 | -87.81535 | 342 ft | 23 kts | 184° |
| 2026-05-07 04:26 | 33.70474 | -87.81544 | 339 ft | 22 kts | 183° |
| 2026-05-07 04:26 | 33.70341 | -87.81551 | 339 ft | 14 kts | 182° |
| 2026-05-07 04:26 | 33.70277 | -87.81564 | 339 ft | 5 kts | 184° |
| 2026-05-07 04:27 | 33.70243 | -87.81563 | 338 ft | 2 kts | 141° |
| 2026-05-07 04:27 | 33.70240 | -87.81553 | 338 ft | 0 kts | 78° |
| 2026-05-07 04:27 | 33.70245 | -87.81547 | 338 ft | 0 kts | 25° |
| 2026-05-07 04:27 | 33.70258 | -87.81548 | 338 ft | 2 kts | 340° |
| 2026-05-07 04:28 | 33.70276 | -87.81554 | 339 ft | 2 kts | 359° |
| 2026-05-07 04:28 | 33.70279 | -87.81554 | 339 ft | 0 kts | 0° |
| 2026-05-07 04:28 | 33.70487 | -87.81543 | 339 ft | 58 kts | 1° |
| 2026-05-07 04:29 | 33.70964 | -87.81519 | 507 ft | 71 kts | 2° |
| 2026-05-07 04:29 | 33.71468 | -87.81498 | 759 ft | 72 kts | 3° |
| 2026-05-07 04:29 | 33.71972 | -87.81478 | 1005 ft | 72 kts | 4° |
| 2026-05-07 04:29 | 33.72403 | -87.81238 | 1225 ft | 76 kts | 56° |
| 2026-05-07 04:30 | 33.72285 | -87.80605 | 1484 ft | 88 kts | 118° |
| 2026-05-07 04:30 | 33.71849 | -87.80107 | 1765 ft | 85 kts | 126° |
| 2026-05-07 04:30 | 33.71460 | -87.79606 | 2044 ft | 80 kts | 119° |
| 2026-05-07 04:30 | 33.71108 | -87.79063 | 2287 ft | 84 kts | 115° |
| 2026-05-07 04:31 | 33.70786 | -87.78495 | 2534 ft | 83 kts | 122° |
| 2026-05-07 04:31 | 33.70340 | -87.78055 | 2734 ft | 87 kts | 137° |
| 2026-05-07 04:31 | 33.69874 | -87.77568 | 2934 ft | 86 kts | 129° |
| 2026-05-07 04:31 | 33.69464 | -87.77033 | 3097 ft | 90 kts | 123° |
| 2026-05-07 04:32 | 33.69065 | -87.76472 | 3410 ft | 89 kts | 120° |
| 2026-05-07 04:32 | 33.68704 | -87.75867 | 3604 ft | 89 kts | 116° |
| 2026-05-07 04:32 | 33.68326 | -87.75243 | 3764 ft | 98 kts | 124° |
| 2026-05-07 04:32 | 33.67901 | -87.74641 | 4031 ft | 93 kts | 120° |
| 2026-05-07 04:33 | 33.67522 | -87.73989 | 4297 ft | 97 kts | 130° |
| 2026-05-07 04:33 | 33.67087 | -87.73422 | 4616 ft | 90 kts | 127° |
| 2026-05-07 04:33 | 33.66673 | -87.72881 | 4885 ft | 86 kts | 131° |
| 2026-05-07 04:33 | 33.66282 | -87.72331 | 5076 ft | 90 kts | 126° |
| 2026-05-07 04:34 | 33.65868 | -87.71765 | 5284 ft | 92 kts | 130° |
| 2026-05-07 04:34 | 33.65446 | -87.71165 | 5497 ft | 96 kts | 131° |
| 2026-05-07 04:34 | 33.65024 | -87.70529 | 5745 ft | 99 kts | 133° |
| 2026-05-07 04:34 | 33.64587 | -87.69868 | 5919 ft | 102 kts | 135° |
| 2026-05-07 04:35 | 33.64145 | -87.69190 | 6131 ft | 104 kts | 130° |
| 2026-05-07 04:35 | 33.63709 | -87.68480 | 6374 ft | 107 kts | 134° |
| 2026-05-07 04:35 | 33.63274 | -87.67758 | 6620 ft | 107 kts | 127° |
| 2026-05-07 04:35 | 33.62846 | -87.67024 | 6798 ft | 109 kts | 126° |
| 2026-05-07 04:36 | 33.62405 | -87.66273 | 6961 ft | 115 kts | 130° |
| 2026-05-07 04:36 | 33.61915 | -87.65439 | 6987 ft | 128 kts | 131° |
| 2026-05-07 04:36 | 33.61379 | -87.64531 | 6949 ft | 135 kts | 129° |
| 2026-05-07 04:36 | 33.60839 | -87.63618 | 6989 ft | 134 kts | 130° |
| 2026-05-07 04:37 | 33.60305 | -87.62704 | 6982 ft | 134 kts | 129° |
| 2026-05-07 04:37 | 33.59783 | -87.61797 | 6950 ft | 132 kts | 131° |
| 2026-05-07 04:37 | 33.59277 | -87.60886 | 6964 ft | 132 kts | 133° |
| 2026-05-07 04:37 | 33.58766 | -87.59970 | 6978 ft | 131 kts | 131° |
| 2026-05-07 04:38 | 33.58237 | -87.59070 | 6966 ft | 132 kts | 133° |
| 2026-05-07 04:38 | 33.57716 | -87.58164 | 6981 ft | 132 kts | 131° |
| 2026-05-07 04:38 | 33.57190 | -87.57261 | 6965 ft | 133 kts | 131° |
| 2026-05-07 04:38 | 33.56663 | -87.56348 | 6974 ft | 133 kts | 131° |
| 2026-05-07 04:39 | 33.56379 | -87.55276 | 6952 ft | 140 kts | 92° |
| 2026-05-07 04:39 | 33.56586 | -87.54150 | 6953 ft | 136 kts | 70° |
| 2026-05-07 04:39 | 33.56901 | -87.53077 | 6979 ft | 136 kts | 67° |
| 2026-05-07 04:39 | 33.57188 | -87.51999 | 6973 ft | 138 kts | 72° |
| 2026-05-07 04:40 | 33.57462 | -87.50892 | 6970 ft | 137 kts | 70° |
| 2026-05-07 04:40 | 33.57723 | -87.49799 | 6973 ft | 136 kts | 72° |
| 2026-05-07 04:40 | 33.57981 | -87.48703 | 6977 ft | 136 kts | 70° |
| 2026-05-07 04:40 | 33.58209 | -87.47590 | 6964 ft | 137 kts | 75° |
| 2026-05-07 04:41 | 33.58417 | -87.46468 | 6989 ft | 138 kts | 77° |
| 2026-05-07 04:41 | 33.58624 | -87.45335 | 6982 ft | 140 kts | 77° |
| 2026-05-07 04:41 | 33.58820 | -87.44196 | 7000 ft | 141 kts | 75° |
| 2026-05-07 04:41 | 33.59016 | -87.43034 | 6982 ft | 141 kts | 78° |
| 2026-05-07 04:42 | 33.59211 | -87.41873 | 6963 ft | 141 kts | 78° |
| 2026-05-07 04:42 | 33.59392 | -87.40733 | 6964 ft | 140 kts | 77° |
| 2026-05-07 04:42 | 33.59584 | -87.39587 | 6991 ft | 142 kts | 79° |
| 2026-05-07 04:42 | 33.59765 | -87.38425 | 6964 ft | 142 kts | 79° |
| 2026-05-07 04:43 | 33.59951 | -87.37266 | 6982 ft | 141 kts | 79° |
| 2026-05-07 04:43 | 33.60130 | -87.36113 | 7014 ft | 142 kts | 77° |
| 2026-05-07 04:43 | 33.60310 | -87.34904 | 6989 ft | 145 kts | 77° |
| 2026-05-07 04:43 | 33.60481 | -87.33706 | 6993 ft | 142 kts | 81° |
| 2026-05-07 04:44 | 33.60660 | -87.32522 | 6950 ft | 143 kts | 76° |
| 2026-05-07 04:44 | 33.60831 | -87.31353 | 6961 ft | 141 kts | 78° |
| 2026-05-07 04:44 | 33.61002 | -87.30183 | 6948 ft | 140 kts | 77° |
| 2026-05-07 04:44 | 33.61173 | -87.29030 | 6996 ft | 144 kts | 75° |
| 2026-05-07 04:45 | 33.61358 | -87.27841 | 6958 ft | 145 kts | 75° |
| 2026-05-07 04:45 | 33.61534 | -87.26650 | 6935 ft | 146 kts | 77° |
| 2026-05-07 04:45 | 33.61721 | -87.25470 | 6965 ft | 146 kts | 81° |
| 2026-05-07 04:45 | 33.61898 | -87.24281 | 6978 ft | 145 kts | 79° |
| 2026-05-07 04:46 | 33.62075 | -87.23083 | 6980 ft | 145 kts | 77° |
| 2026-05-07 04:46 | 33.62262 | -87.21880 | 6999 ft | 148 kts | 79° |
| 2026-05-07 04:46 | 33.62443 | -87.20680 | 6965 ft | 146 kts | 81° |
| 2026-05-07 04:46 | 33.62619 | -87.19482 | 6981 ft | 146 kts | 78° |
| 2026-05-07 04:47 | 33.62804 | -87.18273 | 7015 ft | 146 kts | 79° |
| 2026-05-07 04:47 | 33.63015 | -87.17055 | 6988 ft | 147 kts | 70° |
| 2026-05-07 04:47 | 33.62946 | -87.15859 | 6966 ft | 143 kts | 122° |
| 2026-05-07 04:47 | 33.62374 | -87.14925 | 6969 ft | 139 kts | 137° |
| 2026-05-07 04:48 | 33.61815 | -87.13972 | 6982 ft | 141 kts | 127° |
| 2026-05-07 04:48 | 33.61333 | -87.12946 | 6985 ft | 145 kts | 122° |
| 2026-05-07 04:48 | 33.60891 | -87.11855 | 6976 ft | 147 kts | 116° |
| 2026-05-07 04:48 | 33.60475 | -87.10739 | 6989 ft | 144 kts | 117° |
| 2026-05-07 04:49 | 33.60083 | -87.09647 | 7014 ft | 145 kts | 122° |
| 2026-05-07 04:49 | 33.59681 | -87.08524 | 6966 ft | 145 kts | 115° |
| 2026-05-07 04:49 | 33.59283 | -87.07411 | 6969 ft | 145 kts | 118° |
| 2026-05-07 04:49 | 33.58731 | -87.06458 | 6991 ft | 133 kts | 155° |
| 2026-05-07 04:50 | 33.57908 | -87.06175 | 7007 ft | 117 kts | 193° |
| 2026-05-07 04:50 | 33.57109 | -87.06313 | 6991 ft | 115 kts | 204° |
| 2026-05-07 04:50 | 33.56348 | -87.06593 | 6992 ft | 113 kts | 210° |
| 2026-05-07 04:50 | 33.55618 | -87.06922 | 6993 ft | 113 kts | 214° |
| 2026-05-07 04:51 | 33.54896 | -87.07293 | 6963 ft | 111 kts | 212° |
| 2026-05-07 04:51 | 33.54198 | -87.07666 | 6973 ft | 107 kts | 216° |
| 2026-05-07 04:51 | 33.53525 | -87.08034 | 6975 ft | 107 kts | 215° |
| 2026-05-07 04:51 | 33.52846 | -87.08423 | 6953 ft | 108 kts | 214° |
| 2026-05-07 04:52 | 33.52174 | -87.08798 | 6973 ft | 106 kts | 213° |
| 2026-05-07 04:52 | 33.51432 | -87.08986 | 6944 ft | 120 kts | 182° |
| 2026-05-07 04:52 | 33.50623 | -87.08772 | 6959 ft | 111 kts | 198° |
| 2026-05-07 04:52 | 33.50003 | -87.09183 | 6966 ft | 98 kts | 235° |
| 2026-05-07 04:53 | 33.49533 | -87.09774 | 6968 ft | 99 kts | 230° |
| 2026-05-07 04:53 | 33.48981 | -87.10312 | 6948 ft | 105 kts | 226° |
| 2026-05-07 04:53 | 33.48384 | -87.10795 | 6826 ft | 104 kts | 218° |
| 2026-05-07 04:53 | 33.47757 | -87.11235 | 6692 ft | 104 kts | 220° |
| 2026-05-07 04:54 | 33.47122 | -87.11638 | 6599 ft | 103 kts | 221° |
| 2026-05-07 04:54 | 33.46474 | -87.12040 | 6504 ft | 104 kts | 214° |
| 2026-05-07 04:54 | 33.45812 | -87.12427 | 6342 ft | 106 kts | 218° |
| 2026-05-07 04:54 | 33.45142 | -87.12811 | 6251 ft | 107 kts | 217° |
| 2026-05-07 04:55 | 33.44471 | -87.13210 | 6091 ft | 107 kts | 217° |
| 2026-05-07 04:55 | 33.43800 | -87.13589 | 5953 ft | 106 kts | 216° |
| 2026-05-07 04:55 | 33.43144 | -87.13974 | 5871 ft | 105 kts | 217° |
| 2026-05-07 04:55 | 33.42478 | -87.14346 | 5753 ft | 105 kts | 214° |
| 2026-05-07 04:56 | 33.41813 | -87.14730 | 5636 ft | 105 kts | 217° |
| 2026-05-07 04:56 | 33.41146 | -87.15108 | 5527 ft | 105 kts | 214° |
| 2026-05-07 04:56 | 33.40489 | -87.15486 | 5406 ft | 106 kts | 214° |
| 2026-05-07 04:56 | 33.39818 | -87.15869 | 5296 ft | 107 kts | 216° |
| 2026-05-07 04:57 | 33.39142 | -87.16256 | 5188 ft | 109 kts | 211° |
| 2026-05-07 04:57 | 33.38450 | -87.16647 | 5035 ft | 110 kts | 220° |
| 2026-05-07 04:57 | 33.37748 | -87.17042 | 4893 ft | 112 kts | 216° |
| 2026-05-07 04:57 | 33.37046 | -87.17451 | 4734 ft | 112 kts | 215° |
| 2026-05-07 04:58 | 33.36266 | -87.17649 | 4551 ft | 118 kts | 197° |
| 2026-05-07 04:58 | 33.35540 | -87.18014 | 4480 ft | 111 kts | 215° |
| 2026-05-07 04:58 | 33.34843 | -87.18453 | 4322 ft | 112 kts | 217° |
| 2026-05-07 04:58 | 33.34155 | -87.18895 | 4224 ft | 112 kts | 216° |
| 2026-05-07 04:59 | 33.33459 | -87.19330 | 4122 ft | 114 kts | 214° |
| 2026-05-07 04:59 | 33.32748 | -87.19768 | 4001 ft | 115 kts | 214° |
| 2026-05-07 04:59 | 33.32038 | -87.20203 | 3878 ft | 115 kts | 214° |
| 2026-05-07 04:59 | 33.31316 | -87.20637 | 3742 ft | 116 kts | 213° |
| 2026-05-07 05:00 | 33.30591 | -87.21071 | 3607 ft | 116 kts | 211° |
| 2026-05-07 05:00 | 33.29861 | -87.21502 | 3490 ft | 116 kts | 212° |
| 2026-05-07 05:00 | 33.29128 | -87.21935 | 3346 ft | 117 kts | 212° |
| 2026-05-07 05:00 | 33.28397 | -87.22362 | 3236 ft | 119 kts | 212° |
| 2026-05-07 05:01 | 33.27646 | -87.22797 | 3098 ft | 120 kts | 211° |
| 2026-05-07 05:01 | 33.26889 | -87.23237 | 2980 ft | 119 kts | 210° |
| 2026-05-07 05:01 | 33.26165 | -87.23649 | 2966 ft | 112 kts | 212° |
| 2026-05-07 05:01 | 33.25474 | -87.24034 | 2920 ft | 106 kts | 211° |
| 2026-05-07 05:02 | 33.24818 | -87.24402 | 2976 ft | 101 kts | 213° |
| 2026-05-07 05:02 | 33.24175 | -87.24752 | 2956 ft | 99 kts | 217° |
| 2026-05-07 05:02 | 33.23552 | -87.25123 | 2798 ft | 111 kts | 197° |
| 2026-05-07 05:02 | 33.22794 | -87.24947 | 2744 ft | 114 kts | 146° |
| 2026-05-07 05:03 | 33.22361 | -87.24194 | 2693 ft | 110 kts | 100° |
| 2026-05-07 05:03 | 33.22453 | -87.23360 | 2700 ft | 99 kts | 53° |
| 2026-05-07 05:03 | 33.22992 | -87.22819 | 2651 ft | 100 kts | 27° |
| 2026-05-07 05:03 | 33.23623 | -87.22411 | 2579 ft | 104 kts | 25° |
| 2026-05-07 05:04 | 33.24267 | -87.22030 | 2522 ft | 104 kts | 18° |
| 2026-05-07 05:04 | 33.24936 | -87.21694 | 2455 ft | 105 kts | 20° |
| 2026-05-07 05:04 | 33.25615 | -87.21330 | 2385 ft | 106 kts | 21° |
| 2026-05-07 05:04 | 33.26286 | -87.20965 | 2479 ft | 104 kts | 21° |
| 2026-05-07 05:05 | 33.26952 | -87.20600 | 2528 ft | 107 kts | 21° |
| 2026-05-07 05:05 | 33.27631 | -87.20207 | 2565 ft | 109 kts | 22° |
| 2026-05-07 05:05 | 33.28336 | -87.19827 | 2632 ft | 107 kts | 19° |
| 2026-05-07 05:05 | 33.29009 | -87.19493 | 2769 ft | 102 kts | 16° |
| 2026-05-07 05:06 | 33.29657 | -87.19207 | 2912 ft | 100 kts | 14° |
| 2026-05-07 05:06 | 33.30254 | -87.18703 | 2952 ft | 109 kts | 39° |
| 2026-05-07 05:06 | 33.30789 | -87.18127 | 3134 ft | 101 kts | 32° |
| 2026-05-07 05:06 | 33.31400 | -87.17584 | 3082 ft | 114 kts | 29° |
| 2026-05-07 05:07 | 33.31983 | -87.16952 | 3045 ft | 119 kts | 52° |
| 2026-05-07 05:07 | 33.32482 | -87.16182 | 3079 ft | 112 kts | 43° |
| 2026-05-07 05:07 | 33.33014 | -87.15503 | 3060 ft | 112 kts | 40° |
| 2026-05-07 05:07 | 33.33593 | -87.14865 | 3009 ft | 114 kts | 34° |
| 2026-05-07 05:08 | 33.34107 | -87.14150 | 3013 ft | 114 kts | 51° |
| 2026-05-07 05:08 | 33.34539 | -87.13357 | 3017 ft | 114 kts | 52° |
| 2026-05-07 05:08 | 33.34962 | -87.12558 | 3024 ft | 112 kts | 54° |
| 2026-05-07 05:08 | 33.35389 | -87.11784 | 3038 ft | 111 kts | 49° |
| 2026-05-07 05:09 | 33.35856 | -87.11027 | 3014 ft | 114 kts | 49° |
| 2026-05-07 05:09 | 33.36343 | -87.10269 | 2998 ft | 114 kts | 50° |
| 2026-05-07 05:09 | 33.36794 | -87.09483 | 3021 ft | 113 kts | 51° |
| 2026-05-07 05:09 | 33.37219 | -87.08692 | 3019 ft | 114 kts | 53° |
| 2026-05-07 05:10 | 33.37647 | -87.07903 | 3030 ft | 114 kts | 50° |
| 2026-05-07 05:10 | 33.38109 | -87.07112 | 3011 ft | 116 kts | 50° |
| 2026-05-07 05:10 | 33.38565 | -87.06320 | 3012 ft | 115 kts | 50° |
| 2026-05-07 05:10 | 33.39000 | -87.05514 | 3034 ft | 113 kts | 52° |
| 2026-05-07 05:11 | 33.39414 | -87.04720 | 3027 ft | 114 kts | 54° |
| 2026-05-07 05:11 | 33.39750 | -87.03845 | 3016 ft | 114 kts | 55° |
| 2026-05-07 05:11 | 33.40157 | -87.03055 | 3028 ft | 113 kts | 53° |
| 2026-05-07 05:11 | 33.40614 | -87.02280 | 3026 ft | 112 kts | 45° |
| 2026-05-07 05:12 | 33.41126 | -87.01566 | 3008 ft | 114 kts | 42° |
| 2026-05-07 05:12 | 33.41622 | -87.00819 | 2984 ft | 116 kts | 50° |
| 2026-05-07 05:12 | 33.42087 | -87.00040 | 3004 ft | 114 kts | 48° |
| 2026-05-07 05:12 | 33.42553 | -86.99265 | 3002 ft | 114 kts | 51° |
| 2026-05-07 05:13 | 33.43003 | -86.98473 | 2984 ft | 115 kts | 52° |
| 2026-05-07 05:13 | 33.43457 | -86.97681 | 2955 ft | 116 kts | 52° |
| 2026-05-07 05:13 | 33.43889 | -86.96877 | 2960 ft | 114 kts | 53° |
| 2026-05-07 05:13 | 33.44288 | -86.96046 | 2940 ft | 115 kts | 56° |
| 2026-05-07 05:14 | 33.44756 | -86.95286 | 2944 ft | 112 kts | 45° |
| 2026-05-07 05:14 | 33.45255 | -86.94558 | 2866 ft | 114 kts | 45° |
| 2026-05-07 05:14 | 33.45760 | -86.93819 | 2764 ft | 115 kts | 48° |
| 2026-05-07 05:14 | 33.46246 | -86.93082 | 2735 ft | 111 kts | 50° |
| 2026-05-07 05:15 | 33.46728 | -86.92335 | 2674 ft | 114 kts | 50° |
| 2026-05-07 05:15 | 33.47183 | -86.91579 | 2669 ft | 111 kts | 50° |
| 2026-05-07 05:15 | 33.47603 | -86.90779 | 2609 ft | 113 kts | 55° |
| 2026-05-07 05:15 | 33.47994 | -86.89977 | 2510 ft | 112 kts | 55° |
| 2026-05-07 05:16 | 33.48423 | -86.89188 | 2398 ft | 112 kts | 52° |
| 2026-05-07 05:16 | 33.48871 | -86.88438 | 2287 ft | 108 kts | 51° |
| 2026-05-07 05:16 | 33.49257 | -86.87803 | 2230 ft | 88 kts | 50° |
| 2026-05-07 05:16 | 33.49610 | -86.87239 | 2257 ft | 83 kts | 48° |
| 2026-05-07 05:17 | 33.49962 | -86.86677 | 2243 ft | 84 kts | 49° |
| 2026-05-07 05:17 | 33.50301 | -86.86118 | 2304 ft | 81 kts | 49° |
| 2026-05-07 05:17 | 33.50632 | -86.85551 | 2256 ft | 86 kts | 51° |
| 2026-05-07 05:17 | 33.50965 | -86.84945 | 2126 ft | 89 kts | 52° |
| 2026-05-07 05:18 | 33.51312 | -86.84318 | 2014 ft | 87 kts | 54° |
| 2026-05-07 05:18 | 33.51639 | -86.83697 | 1859 ft | 89 kts | 54° |
| 2026-05-07 05:18 | 33.51997 | -86.83110 | 1734 ft | 86 kts | 51° |
| 2026-05-07 05:18 | 33.52363 | -86.82523 | 1577 ft | 88 kts | 50° |
| 2026-05-07 05:19 | 33.52732 | -86.81972 | 1568 ft | 81 kts | 53° |
| 2026-05-07 05:19 | 33.53044 | -86.81401 | 1477 ft | 84 kts | 54° |
| 2026-05-07 05:19 | 33.53363 | -86.80802 | 1367 ft | 86 kts | 56° |
| 2026-05-07 05:19 | 33.53699 | -86.80197 | 1237 ft | 89 kts | 54° |
| 2026-05-07 05:20 | 33.54064 | -86.79604 | 1138 ft | 86 kts | 49° |
| 2026-05-07 05:20 | 33.54409 | -86.79012 | 1019 ft | 85 kts | 57° |
| 2026-05-07 05:20 | 33.54733 | -86.78422 | 885 ft | 86 kts | 51° |
| 2026-05-07 05:20 | 33.55096 | -86.77826 | 790 ft | 85 kts | 58° |
| 2026-05-07 05:21 | 33.55363 | -86.77345 | 744 ft | 65 kts | 53° |
| 2026-05-07 05:21 | 33.55869 | -86.76480 | 615 ft | 56 kts | 56° |
| 2026-05-07 05:21 | 33.56041 | -86.76181 | 618 ft | 32 kts | 55° |
| 2026-05-07 05:22 | 33.56149 | -86.75990 | 618 ft | 27 kts | 54° |
| 2026-05-07 05:22 | 33.56256 | -86.75804 | 617 ft | 24 kts | 58° |
| 2026-05-07 05:22 | 33.56227 | -86.75719 | 613 ft | 15 kts | 144° |
| 2026-05-07 05:22 | 33.56103 | -86.75623 | 609 ft | 19 kts | 143° |
| 2026-05-07 05:23 | 33.56028 | -86.75544 | 609 ft | 12 kts | 109° |
| 2026-05-07 05:23 | 33.55985 | -86.75489 | 609 ft | 6 kts | 126° |
| 2026-05-07 05:23 | 33.55983 | -86.75476 | 609 ft | 0 kts | 94° |